sensor_id;sensor_type;location;lat;lon;timestamp;temperature;humidity
25953;DHT22;13750;50.804;8.764;2022-07-04T00:01:06;21.20;54.40
25953;DHT22;13750;50.804;8.764;2022-07-04T00:03:31;21.10;54.50
25953;DHT22;13750;50.804;8.764;2022-07-04T00:05:57;21.10;54.60
25953;DHT22;13750;50.804;8.764;2022-07-04T00:08:23;21.10;54.60
25953;DHT22;13750;50.804;8.764;2022-07-04T00:10:48;21.10;54.70
25953;DHT22;13750;50.804;8.764;2022-07-04T00:13:14;21.10;54.70
25953;DHT22;13750;50.804;8.764;2022-07-04T00:15:40;21.00;54.80
25953;DHT22;13750;50.804;8.764;2022-07-04T00:18:06;21.00;54.80
25953;DHT22;13750;50.804;8.764;2022-07-04T00:20:32;20.90;54.90
25953;DHT22;13750;50.804;8.764;2022-07-04T00:23:00;20.90;55.00
25953;DHT22;13750;50.804;8.764;2022-07-04T00:25:26;20.80;55.20
25953;DHT22;13750;50.804;8.764;2022-07-04T00:27:52;20.80;55.40
25953;DHT22;13750;50.804;8.764;2022-07-04T00:30:18;20.70;55.50
25953;DHT22;13750;50.804;8.764;2022-07-04T00:32:43;20.70;55.50
25953;DHT22;13750;50.804;8.764;2022-07-04T00:35:09;20.60;55.70
25953;DHT22;13750;50.804;8.764;2022-07-04T00:37:35;20.60;55.90
25953;DHT22;13750;50.804;8.764;2022-07-04T00:40:00;20.60;56.00
25953;DHT22;13750;50.804;8.764;2022-07-04T00:42:26;20.60;56.10
25953;DHT22;13750;50.804;8.764;2022-07-04T00:44:54;20.60;56.10
25953;DHT22;13750;50.804;8.764;2022-07-04T00:47:19;20.60;56.00
25953;DHT22;13750;50.804;8.764;2022-07-04T00:49:45;20.60;56.00
25953;DHT22;13750;50.804;8.764;2022-07-04T00:52:12;20.60;56.10
25953;DHT22;13750;50.804;8.764;2022-07-04T00:54:38;20.60;56.20
25953;DHT22;13750;50.804;8.764;2022-07-04T00:57:04;20.60;56.30
25953;DHT22;13750;50.804;8.764;2022-07-04T00:59:29;20.50;56.50
25953;DHT22;13750;50.804;8.764;2022-07-04T01:01:55;20.50;56.60
25953;DHT22;13750;50.804;8.764;2022-07-04T01:04:21;20.40;56.80
25953;DHT22;13750;50.804;8.764;2022-07-04T01:06:47;20.40;57.00
25953;DHT22;13750;50.804;8.764;2022-07-04T01:09:13;20.40;57.10
25953;DHT22;13750;50.804;8.764;2022-07-04T01:11:39;20.40;57.20
25953;DHT22;13750;50.804;8.764;2022-07-04T01:14:05;20.30;57.30
25953;DHT22;13750;50.804;8.764;2022-07-04T01:16:33;20.30;57.30
25953;DHT22;13750;50.804;8.764;2022-07-04T01:18:59;20.20;57.40
25953;DHT22;13750;50.804;8.764;2022-07-04T01:21:25;20.20;57.40
25953;DHT22;13750;50.804;8.764;2022-07-04T01:23:51;20.10;57.50
25953;DHT22;13750;50.804;8.764;2022-07-04T01:26:16;20.10;57.60
25953;DHT22;13750;50.804;8.764;2022-07-04T01:28:44;20.10;57.70
25953;DHT22;13750;50.804;8.764;2022-07-04T01:31:10;20.10;57.90
25953;DHT22;13750;50.804;8.764;2022-07-04T01:33:36;20.10;58.00
25953;DHT22;13750;50.804;8.764;2022-07-04T01:36:04;20.00;58.20
25953;DHT22;13750;50.804;8.764;2022-07-04T01:38:30;19.90;58.30
25953;DHT22;13750;50.804;8.764;2022-07-04T01:40:55;19.90;58.50
25953;DHT22;13750;50.804;8.764;2022-07-04T01:43:21;19.80;58.70
25953;DHT22;13750;50.804;8.764;2022-07-04T01:45:47;19.80;58.80
25953;DHT22;13750;50.804;8.764;2022-07-04T01:48:15;19.80;58.90
25953;DHT22;13750;50.804;8.764;2022-07-04T01:50:41;19.70;59.10
25953;DHT22;13750;50.804;8.764;2022-07-04T01:53:07;19.70;59.20
25953;DHT22;13750;50.804;8.764;2022-07-04T01:55:33;19.60;59.40
25953;DHT22;13750;50.804;8.764;2022-07-04T01:57:59;19.60;59.50
25953;DHT22;13750;50.804;8.764;2022-07-04T02:00:25;19.60;59.50
25953;DHT22;13750;50.804;8.764;2022-07-04T02:03:10;19.50;59.50
25953;DHT22;13750;50.804;8.764;2022-07-04T02:05:36;19.50;59.50
25953;DHT22;13750;50.804;8.764;2022-07-04T02:08:06;19.50;59.60
25953;DHT22;13750;50.804;8.764;2022-07-04T02:10:36;19.40;59.80
25953;DHT22;13750;50.804;8.764;2022-07-04T02:13:02;19.40;59.80
25953;DHT22;13750;50.804;8.764;2022-07-04T02:15:32;19.40;59.70
25953;DHT22;13750;50.804;8.764;2022-07-04T02:17:59;19.30;59.80
25953;DHT22;13750;50.804;8.764;2022-07-04T02:20:25;19.30;59.90
25953;DHT22;13750;50.804;8.764;2022-07-04T02:22:51;19.30;60.00
25953;DHT22;13750;50.804;8.764;2022-07-04T02:25:17;19.20;60.20
25953;DHT22;13750;50.804;8.764;2022-07-04T02:27:43;19.20;60.30
25953;DHT22;13750;50.804;8.764;2022-07-04T02:30:09;19.10;60.50
25953;DHT22;13750;50.804;8.764;2022-07-04T02:32:35;19.10;60.60
25953;DHT22;13750;50.804;8.764;2022-07-04T02:35:02;19.10;60.80
25953;DHT22;13750;50.804;8.764;2022-07-04T02:37:27;19.10;60.90
25953;DHT22;13750;50.804;8.764;2022-07-04T02:39:53;19.10;61.00
25953;DHT22;13750;50.804;8.764;2022-07-04T02:42:19;19.00;61.00
25953;DHT22;13750;50.804;8.764;2022-07-04T02:44:44;19.00;60.90
25953;DHT22;13750;50.804;8.764;2022-07-04T02:47:11;18.90;60.90
25953;DHT22;13750;50.804;8.764;2022-07-04T02:49:36;18.90;61.10
25953;DHT22;13750;50.804;8.764;2022-07-04T02:52:02;18.90;61.20
25953;DHT22;13750;50.804;8.764;2022-07-04T02:54:28;18.90;61.30
25953;DHT22;13750;50.804;8.764;2022-07-04T02:56:53;18.80;61.40
25953;DHT22;13750;50.804;8.764;2022-07-04T02:59:19;18.80;61.60
25953;DHT22;13750;50.804;8.764;2022-07-04T03:01:45;18.80;61.60
25953;DHT22;13750;50.804;8.764;2022-07-04T03:04:11;18.70;61.70
25953;DHT22;13750;50.804;8.764;2022-07-04T03:06:36;18.70;61.90
25953;DHT22;13750;50.804;8.764;2022-07-04T03:09:02;18.70;62.00
25953;DHT22;13750;50.804;8.764;2022-07-04T03:11:28;18.70;62.20
25953;DHT22;13750;50.804;8.764;2022-07-04T03:13:53;18.60;62.20
25953;DHT22;13750;50.804;8.764;2022-07-04T03:16:19;18.60;62.20
25953;DHT22;13750;50.804;8.764;2022-07-04T03:18:46;18.60;62.20
25953;DHT22;13750;50.804;8.764;2022-07-04T03:21:11;18.60;62.30
25953;DHT22;13750;50.804;8.764;2022-07-04T03:23:37;18.60;62.30
25953;DHT22;13750;50.804;8.764;2022-07-04T03:26:03;18.60;62.50
25953;DHT22;13750;50.804;8.764;2022-07-04T03:28:28;18.50;62.60
25953;DHT22;13750;50.804;8.764;2022-07-04T03:30:54;18.50;62.70
25953;DHT22;13750;50.804;8.764;2022-07-04T03:33:19;18.40;62.80
25953;DHT22;13750;50.804;8.764;2022-07-04T03:35:45;18.40;62.90
25953;DHT22;13750;50.804;8.764;2022-07-04T03:38:11;18.40;63.10
25953;DHT22;13750;50.804;8.764;2022-07-04T03:40:37;18.30;63.20
25953;DHT22;13750;50.804;8.764;2022-07-04T03:43:04;18.20;63.30
25953;DHT22;13750;50.804;8.764;2022-07-04T03:45:32;18.30;63.40
25953;DHT22;13750;50.804;8.764;2022-07-04T03:47:58;18.20;63.60
25953;DHT22;13750;50.804;8.764;2022-07-04T03:50:24;18.20;63.60
25953;DHT22;13750;50.804;8.764;2022-07-04T03:52:49;18.20;63.80
25953;DHT22;13750;50.804;8.764;2022-07-04T03:55:15;18.20;63.90
25953;DHT22;13750;50.804;8.764;2022-07-04T03:57:41;18.10;64.00
25953;DHT22;13750;50.804;8.764;2022-07-04T04:00:07;18.10;64.10
25953;DHT22;13750;50.804;8.764;2022-07-04T04:02:33;18.10;64.10
25953;DHT22;13750;50.804;8.764;2022-07-04T04:04:59;18.10;64.20
25953;DHT22;13750;50.804;8.764;2022-07-04T04:07:43;18.10;64.40
25953;DHT22;13750;50.804;8.764;2022-07-04T04:10:10;18.10;64.50
25953;DHT22;13750;50.804;8.764;2022-07-04T04:12:36;18.00;64.50
25953;DHT22;13750;50.804;8.764;2022-07-04T04:15:04;18.00;64.60
25953;DHT22;13750;50.804;8.764;2022-07-04T04:17:30;18.00;64.70
25953;DHT22;13750;50.804;8.764;2022-07-04T04:19:56;18.00;64.80
25953;DHT22;13750;50.804;8.764;2022-07-04T04:22:22;17.90;64.90
25953;DHT22;13750;50.804;8.764;2022-07-04T04:24:47;17.90;65.00
25953;DHT22;13750;50.804;8.764;2022-07-04T04:27:14;17.90;65.00
25953;DHT22;13750;50.804;8.764;2022-07-04T04:29:40;17.90;65.10
25953;DHT22;13750;50.804;8.764;2022-07-04T04:32:06;17.90;65.10
25953;DHT22;13750;50.804;8.764;2022-07-04T04:34:32;17.90;65.20
25953;DHT22;13750;50.804;8.764;2022-07-04T04:36:59;18.00;65.20
25953;DHT22;13750;50.804;8.764;2022-07-04T04:39:26;18.00;65.20
25953;DHT22;13750;50.804;8.764;2022-07-04T04:42:00;18.00;65.10
25953;DHT22;13750;50.804;8.764;2022-07-04T04:44:27;18.00;65.10
25953;DHT22;13750;50.804;8.764;2022-07-04T04:46:53;18.10;65.10
25953;DHT22;13750;50.804;8.764;2022-07-04T04:49:19;18.10;65.00
25953;DHT22;13750;50.804;8.764;2022-07-04T04:51:44;18.10;65.00
25953;DHT22;13750;50.804;8.764;2022-07-04T04:54:11;18.10;65.00
25953;DHT22;13750;50.804;8.764;2022-07-04T04:56:37;18.10;65.00
25953;DHT22;13750;50.804;8.764;2022-07-04T04:59:02;18.10;65.00
25953;DHT22;13750;50.804;8.764;2022-07-04T05:01:28;18.10;65.10
25953;DHT22;13750;50.804;8.764;2022-07-04T05:03:54;18.10;65.20
25953;DHT22;13750;50.804;8.764;2022-07-04T05:06:20;18.20;65.20
25953;DHT22;13750;50.804;8.764;2022-07-04T05:08:47;18.20;65.10
25953;DHT22;13750;50.804;8.764;2022-07-04T05:11:13;18.30;65.10
25953;DHT22;13750;50.804;8.764;2022-07-04T05:13:41;18.30;64.90
25953;DHT22;13750;50.804;8.764;2022-07-04T05:16:11;18.30;64.90
25953;DHT22;13750;50.804;8.764;2022-07-04T05:18:37;18.30;64.80
25953;DHT22;13750;50.804;8.764;2022-07-04T05:21:02;18.30;64.70
25953;DHT22;13750;50.804;8.764;2022-07-04T05:23:28;18.40;64.70
25953;DHT22;13750;50.804;8.764;2022-07-04T05:25:54;18.40;64.70
25953;DHT22;13750;50.804;8.764;2022-07-04T05:28:20;18.40;64.70
25953;DHT22;13750;50.804;8.764;2022-07-04T05:30:46;18.50;64.70
25953;DHT22;13750;50.804;8.764;2022-07-04T05:33:11;18.40;64.60
25953;DHT22;13750;50.804;8.764;2022-07-04T05:35:37;18.50;64.50
25953;DHT22;13750;50.804;8.764;2022-07-04T05:38:03;18.50;64.50
25953;DHT22;13750;50.804;8.764;2022-07-04T05:40:29;18.50;64.40
25953;DHT22;13750;50.804;8.764;2022-07-04T05:42:55;18.50;64.30
25953;DHT22;13750;50.804;8.764;2022-07-04T05:45:22;18.60;64.20
25953;DHT22;13750;50.804;8.764;2022-07-04T05:47:47;18.60;63.90
25953;DHT22;13750;50.804;8.764;2022-07-04T05:50:13;18.60;63.60
25953;DHT22;13750;50.804;8.764;2022-07-04T05:52:39;18.60;63.50
25953;DHT22;13750;50.804;8.764;2022-07-04T05:55:05;18.60;63.40
25953;DHT22;13750;50.804;8.764;2022-07-04T05:57:32;18.70;63.40
25953;DHT22;13750;50.804;8.764;2022-07-04T05:59:57;18.70;63.30
25953;DHT22;13750;50.804;8.764;2022-07-04T06:02:23;18.70;63.10
25953;DHT22;13750;50.804;8.764;2022-07-04T06:04:49;18.70;62.70
25953;DHT22;13750;50.804;8.764;2022-07-04T06:07:14;18.80;62.30
25953;DHT22;13750;50.804;8.764;2022-07-04T06:09:40;18.80;62.10
25953;DHT22;13750;50.804;8.764;2022-07-04T06:12:06;18.80;61.80
25953;DHT22;13750;50.804;8.764;2022-07-04T06:14:31;18.90;61.10
25953;DHT22;13750;50.804;8.764;2022-07-04T06:16:57;18.90;59.70
25953;DHT22;13750;50.804;8.764;2022-07-04T06:19:23;18.90;58.90
25953;DHT22;13750;50.804;8.764;2022-07-04T06:21:48;18.90;57.90
25953;DHT22;13750;50.804;8.764;2022-07-04T06:24:14;18.90;57.50
25953;DHT22;13750;50.804;8.764;2022-07-04T06:26:40;18.90;57.20
25953;DHT22;13750;50.804;8.764;2022-07-04T06:29:06;18.90;56.60
25953;DHT22;13750;50.804;8.764;2022-07-04T06:31:32;18.90;56.20
25953;DHT22;13750;50.804;8.764;2022-07-04T06:33:57;18.90;55.90
25953;DHT22;13750;50.804;8.764;2022-07-04T06:36:41;19.00;56.00
25953;DHT22;13750;50.804;8.764;2022-07-04T06:39:07;18.90;55.90
25953;DHT22;13750;50.804;8.764;2022-07-04T06:41:33;18.90;55.70
25953;DHT22;13750;50.804;8.764;2022-07-04T06:43:58;19.00;55.40
25953;DHT22;13750;50.804;8.764;2022-07-04T06:46:24;18.90;55.40
25953;DHT22;13750;50.804;8.764;2022-07-04T06:48:49;19.00;55.00
25953;DHT22;13750;50.804;8.764;2022-07-04T06:51:15;19.00;55.20
25953;DHT22;13750;50.804;8.764;2022-07-04T06:53:41;19.10;55.10
25953;DHT22;13750;50.804;8.764;2022-07-04T06:56:07;19.10;55.10
25953;DHT22;13750;50.804;8.764;2022-07-04T06:58:33;19.10;54.90
25953;DHT22;13750;50.804;8.764;2022-07-04T07:00:58;19.10;55.10
25953;DHT22;13750;50.804;8.764;2022-07-04T07:03:24;19.10;55.10
25953;DHT22;13750;50.804;8.764;2022-07-04T07:05:50;19.10;55.20
25953;DHT22;13750;50.804;8.764;2022-07-04T07:08:15;19.10;54.90
25953;DHT22;13750;50.804;8.764;2022-07-04T07:10:41;19.10;54.70
25953;DHT22;13750;50.804;8.764;2022-07-04T07:13:07;19.10;54.70
25953;DHT22;13750;50.804;8.764;2022-07-04T07:15:33;19.10;54.50
25953;DHT22;13750;50.804;8.764;2022-07-04T07:18:04;19.10;54.40
25953;DHT22;13750;50.804;8.764;2022-07-04T07:20:30;19.10;53.40
25953;DHT22;13750;50.804;8.764;2022-07-04T07:22:56;19.10;52.90
25953;DHT22;13750;50.804;8.764;2022-07-04T07:25:22;19.10;52.70
25953;DHT22;13750;50.804;8.764;2022-07-04T07:27:48;19.10;52.20
25953;DHT22;13750;50.804;8.764;2022-07-04T07:30:14;19.10;52.40
25953;DHT22;13750;50.804;8.764;2022-07-04T07:32:40;19.10;52.60
25953;DHT22;13750;50.804;8.764;2022-07-04T07:35:06;19.20;53.00
25953;DHT22;13750;50.804;8.764;2022-07-04T07:37:32;19.20;53.20
25953;DHT22;13750;50.804;8.764;2022-07-04T07:39:57;19.20;53.40
25953;DHT22;13750;50.804;8.764;2022-07-04T07:42:24;19.20;52.80
25953;DHT22;13750;50.804;8.764;2022-07-04T07:44:50;19.20;53.30
25953;DHT22;13750;50.804;8.764;2022-07-04T07:47:16;19.20;53.60
25953;DHT22;13750;50.804;8.764;2022-07-04T07:49:43;19.20;53.60
25953;DHT22;13750;50.804;8.764;2022-07-04T07:52:09;19.20;53.50
25953;DHT22;13750;50.804;8.764;2022-07-04T07:54:35;19.20;52.80
25953;DHT22;13750;50.804;8.764;2022-07-04T07:57:01;19.30;52.90
25953;DHT22;13750;50.804;8.764;2022-07-04T07:59:26;19.20;53.00
25953;DHT22;13750;50.804;8.764;2022-07-04T08:01:52;19.30;53.40
25953;DHT22;13750;50.804;8.764;2022-07-04T08:04:17;19.30;53.30
25953;DHT22;13750;50.804;8.764;2022-07-04T08:07:10;19.30;53.50
25953;DHT22;13750;50.804;8.764;2022-07-04T08:09:37;19.30;53.60
25953;DHT22;13750;50.804;8.764;2022-07-04T08:12:05;19.30;53.70
25953;DHT22;13750;50.804;8.764;2022-07-04T08:14:33;19.30;53.50
25953;DHT22;13750;50.804;8.764;2022-07-04T08:16:59;19.40;52.80
25953;DHT22;13750;50.804;8.764;2022-07-04T08:19:25;19.40;52.40
25953;DHT22;13750;50.804;8.764;2022-07-04T08:21:52;19.40;52.50
25953;DHT22;13750;50.804;8.764;2022-07-04T08:24:18;19.40;52.30
25953;DHT22;13750;50.804;8.764;2022-07-04T08:26:43;19.40;52.50
25953;DHT22;13750;50.804;8.764;2022-07-04T08:29:09;19.40;52.60
25953;DHT22;13750;50.804;8.764;2022-07-04T08:31:36;19.40;52.40
25953;DHT22;13750;50.804;8.764;2022-07-04T08:34:03;19.40;52.20
25953;DHT22;13750;50.804;8.764;2022-07-04T08:36:28;19.50;50.10
25953;DHT22;13750;50.804;8.764;2022-07-04T08:38:54;19.40;49.60
25953;DHT22;13750;50.804;8.764;2022-07-04T08:41:19;19.50;50.50
25953;DHT22;13750;50.804;8.764;2022-07-04T08:43:47;19.50;49.80
25953;DHT22;13750;50.804;8.764;2022-07-04T08:46:15;19.50;49.70
25953;DHT22;13750;50.804;8.764;2022-07-04T08:48:42;19.60;50.30
25953;DHT22;13750;50.804;8.764;2022-07-04T08:51:16;19.60;49.90
25953;DHT22;13750;50.804;8.764;2022-07-04T08:53:49;19.60;48.10
25953;DHT22;13750;50.804;8.764;2022-07-04T08:56:20;19.60;47.90
25953;DHT22;13750;50.804;8.764;2022-07-04T08:59:06;19.60;48.60
25953;DHT22;13750;50.804;8.764;2022-07-04T09:01:33;19.70;48.90
25953;DHT22;13750;50.804;8.764;2022-07-04T09:04:00;19.70;48.60
25953;DHT22;13750;50.804;8.764;2022-07-04T09:06:27;19.70;48.80
25953;DHT22;13750;50.804;8.764;2022-07-04T09:08:54;19.70;48.80
25953;DHT22;13750;50.804;8.764;2022-07-04T09:11:21;19.80;49.50
25953;DHT22;13750;50.804;8.764;2022-07-04T09:13:47;19.80;49.70
25953;DHT22;13750;50.804;8.764;2022-07-04T09:16:14;19.80;50.10
25953;DHT22;13750;50.804;8.764;2022-07-04T09:18:39;19.90;49.70
25953;DHT22;13750;50.804;8.764;2022-07-04T09:21:09;20.00;50.60
25953;DHT22;13750;50.804;8.764;2022-07-04T09:23:40;20.00;49.10
25953;DHT22;13750;50.804;8.764;2022-07-04T09:26:18;19.90;47.70
25953;DHT22;13750;50.804;8.764;2022-07-04T09:31:23;20.10;48.40
25953;DHT22;13750;50.804;8.764;2022-07-04T09:33:54;20.10;48.80
25953;DHT22;13750;50.804;8.764;2022-07-04T09:36:24;20.10;49.10
25953;DHT22;13750;50.804;8.764;2022-07-04T09:39:16;20.10;48.00
25953;DHT22;13750;50.804;8.764;2022-07-04T09:42:02;20.20;48.50
25953;DHT22;13750;50.804;8.764;2022-07-04T09:47:22;20.20;48.60
25953;DHT22;13750;50.804;8.764;2022-07-04T09:50:05;20.20;48.30
25953;DHT22;13750;50.804;8.764;2022-07-04T09:52:30;20.30;45.80
25953;DHT22;13750;50.804;8.764;2022-07-04T09:54:57;20.40;44.60
25953;DHT22;13750;50.804;8.764;2022-07-04T09:57:23;20.40;44.20
25953;DHT22;13750;50.804;8.764;2022-07-04T09:59:49;20.40;44.50
25953;DHT22;13750;50.804;8.764;2022-07-04T10:02:15;20.40;44.50
25953;DHT22;13750;50.804;8.764;2022-07-04T10:04:49;20.50;43.90
25953;DHT22;13750;50.804;8.764;2022-07-04T10:07:32;20.50;44.30
25953;DHT22;13750;50.804;8.764;2022-07-04T10:09:58;20.50;44.50
25953;DHT22;13750;50.804;8.764;2022-07-04T10:12:27;20.50;45.80
25953;DHT22;13750;50.804;8.764;2022-07-04T10:14:57;20.60;46.10
25953;DHT22;13750;50.804;8.764;2022-07-04T10:17:23;20.60;45.20
25953;DHT22;13750;50.804;8.764;2022-07-04T10:19:48;20.60;45.70
25953;DHT22;13750;50.804;8.764;2022-07-04T10:22:17;20.60;46.00
25953;DHT22;13750;50.804;8.764;2022-07-04T10:24:43;20.70;46.70
25953;DHT22;13750;50.804;8.764;2022-07-04T10:27:10;20.70;46.80
25953;DHT22;13750;50.804;8.764;2022-07-04T10:29:36;20.70;45.60
25953;DHT22;13750;50.804;8.764;2022-07-04T10:32:03;20.80;45.70
25953;DHT22;13750;50.804;8.764;2022-07-04T10:34:28;20.80;45.50
25953;DHT22;13750;50.804;8.764;2022-07-04T10:36:54;20.80;46.10
25953;DHT22;13750;50.804;8.764;2022-07-04T10:39:23;20.70;47.60
25953;DHT22;13750;50.804;8.764;2022-07-04T10:41:57;20.70;48.20
25953;DHT22;13750;50.804;8.764;2022-07-04T10:44:23;20.70;47.10
25953;DHT22;13750;50.804;8.764;2022-07-04T10:46:52;20.70;46.80
25953;DHT22;13750;50.804;8.764;2022-07-04T10:49:21;20.80;46.70
25953;DHT22;13750;50.804;8.764;2022-07-04T10:51:51;20.70;47.40
25953;DHT22;13750;50.804;8.764;2022-07-04T10:57:07;20.80;49.60
25953;DHT22;13750;50.804;8.764;2022-07-04T10:59:34;20.70;52.50
25953;DHT22;13750;50.804;8.764;2022-07-04T11:04:53;20.70;52.80
25953;DHT22;13750;50.804;8.764;2022-07-04T11:18:17;20.70;50.20
25953;DHT22;13750;50.804;8.764;2022-07-04T11:20:45;20.70;47.80
25953;DHT22;13750;50.804;8.764;2022-07-04T11:23:17;20.70;46.80
25953;DHT22;13750;50.804;8.764;2022-07-04T11:25:48;20.80;45.80
25953;DHT22;13750;50.804;8.764;2022-07-04T11:28:22;21.00;46.40
25953;DHT22;13750;50.804;8.764;2022-07-04T11:30:58;21.00;48.20
25953;DHT22;13750;50.804;8.764;2022-07-04T11:33:29;21.00;46.60
25953;DHT22;13750;50.804;8.764;2022-07-04T11:36:15;21.00;45.90
25953;DHT22;13750;50.804;8.764;2022-07-04T11:41:14;21.10;46.90
25953;DHT22;13750;50.804;8.764;2022-07-04T11:44:06;21.00;49.50
25953;DHT22;13750;50.804;8.764;2022-07-04T11:46:59;21.00;52.50
25953;DHT22;13750;50.804;8.764;2022-07-04T11:49:26;21.00;51.90
25953;DHT22;13750;50.804;8.764;2022-07-04T11:51:51;21.00;52.70
25953;DHT22;13750;50.804;8.764;2022-07-04T11:54:18;20.90;52.20
25953;DHT22;13750;50.804;8.764;2022-07-04T11:56:44;21.00;49.20
25953;DHT22;13750;50.804;8.764;2022-07-04T11:59:12;20.90;49.10
25953;DHT22;13750;50.804;8.764;2022-07-04T12:01:38;20.90;49.70
25953;DHT22;13750;50.804;8.764;2022-07-04T12:04:15;21.00;47.90
25953;DHT22;13750;50.804;8.764;2022-07-04T12:06:42;21.00;49.20
25953;DHT22;13750;50.804;8.764;2022-07-04T12:09:08;21.00;47.00
25953;DHT22;13750;50.804;8.764;2022-07-04T12:11:57;21.00;45.30
25953;DHT22;13750;50.804;8.764;2022-07-04T12:14:23;21.10;45.60
25953;DHT22;13750;50.804;8.764;2022-07-04T12:16:49;21.10;45.10
25953;DHT22;13750;50.804;8.764;2022-07-04T12:19:33;21.20;46.70
25953;DHT22;13750;50.804;8.764;2022-07-04T12:21:59;21.20;49.10
25953;DHT22;13750;50.804;8.764;2022-07-04T12:24:27;21.20;48.50
25953;DHT22;13750;50.804;8.764;2022-07-04T12:26:53;21.20;47.50
25953;DHT22;13750;50.804;8.764;2022-07-04T12:29:23;21.20;47.00
25953;DHT22;13750;50.804;8.764;2022-07-04T12:31:52;21.20;47.20
25953;DHT22;13750;50.804;8.764;2022-07-04T12:34:19;21.30;44.90
25953;DHT22;13750;50.804;8.764;2022-07-04T12:39:33;21.50;42.70
25953;DHT22;13750;50.804;8.764;2022-07-04T12:42:16;21.50;43.50
25953;DHT22;13750;50.804;8.764;2022-07-04T12:44:44;21.60;45.20
25953;DHT22;13750;50.804;8.764;2022-07-04T12:47:11;21.60;47.20
25953;DHT22;13750;50.804;8.764;2022-07-04T12:49:41;21.60;47.50
25953;DHT22;13750;50.804;8.764;2022-07-04T12:52:15;21.60;43.80
25953;DHT22;13750;50.804;8.764;2022-07-04T12:54:41;21.60;44.00
25953;DHT22;13750;50.804;8.764;2022-07-04T12:57:15;21.70;44.50
25953;DHT22;13750;50.804;8.764;2022-07-04T12:59:42;21.70;44.70
25953;DHT22;13750;50.804;8.764;2022-07-04T13:02:09;21.70;46.30
25953;DHT22;13750;50.804;8.764;2022-07-04T13:04:35;21.70;47.50
25953;DHT22;13750;50.804;8.764;2022-07-04T13:07:15;21.70;46.70
25953;DHT22;13750;50.804;8.764;2022-07-04T13:09:45;21.70;44.60
25953;DHT22;13750;50.804;8.764;2022-07-04T13:12:12;21.70;44.80
25953;DHT22;13750;50.804;8.764;2022-07-04T13:14:54;21.70;46.10
25953;DHT22;13750;50.804;8.764;2022-07-04T13:17:20;21.80;47.20
25953;DHT22;13750;50.804;8.764;2022-07-04T13:19:46;21.80;46.00
25953;DHT22;13750;50.804;8.764;2022-07-04T13:22:12;21.80;45.30
25953;DHT22;13750;50.804;8.764;2022-07-04T13:24:38;21.80;45.30
25953;DHT22;13750;50.804;8.764;2022-07-04T13:27:03;21.90;46.60
25953;DHT22;13750;50.804;8.764;2022-07-04T13:29:29;21.90;45.20
25953;DHT22;13750;50.804;8.764;2022-07-04T13:31:55;22.00;43.70
25953;DHT22;13750;50.804;8.764;2022-07-04T13:34:20;22.10;43.10
25953;DHT22;13750;50.804;8.764;2022-07-04T13:36:46;22.20;42.70
25953;DHT22;13750;50.804;8.764;2022-07-04T13:39:12;22.30;41.30
25953;DHT22;13750;50.804;8.764;2022-07-04T13:41:39;22.30;41.90
25953;DHT22;13750;50.804;8.764;2022-07-04T13:44:05;22.50;42.30
25953;DHT22;13750;50.804;8.764;2022-07-04T13:46:32;22.50;41.90
25953;DHT22;13750;50.804;8.764;2022-07-04T13:49:04;22.50;42.00
25953;DHT22;13750;50.804;8.764;2022-07-04T13:51:30;22.60;42.10
25953;DHT22;13750;50.804;8.764;2022-07-04T13:53:55;22.60;40.90
25953;DHT22;13750;50.804;8.764;2022-07-04T13:56:21;22.60;40.80
25953;DHT22;13750;50.804;8.764;2022-07-04T13:58:47;22.70;41.10
25953;DHT22;13750;50.804;8.764;2022-07-04T14:01:13;22.80;41.30
25953;DHT22;13750;50.804;8.764;2022-07-04T14:03:45;22.80;41.40
25953;DHT22;13750;50.804;8.764;2022-07-04T14:06:10;22.80;41.20
25953;DHT22;13750;50.804;8.764;2022-07-04T14:08:36;22.80;41.40
25953;DHT22;13750;50.804;8.764;2022-07-04T14:11:02;22.90;41.10
25953;DHT22;13750;50.804;8.764;2022-07-04T14:13:28;22.90;41.30
25953;DHT22;13750;50.804;8.764;2022-07-04T14:15:54;22.90;41.80
25953;DHT22;13750;50.804;8.764;2022-07-04T14:18:20;22.90;42.40
25953;DHT22;13750;50.804;8.764;2022-07-04T14:20:46;23.00;41.90
25953;DHT22;13750;50.804;8.764;2022-07-04T14:23:12;23.10;41.90
25953;DHT22;13750;50.804;8.764;2022-07-04T14:25:38;23.10;42.20
25953;DHT22;13750;50.804;8.764;2022-07-04T14:28:04;23.10;42.20
25953;DHT22;13750;50.804;8.764;2022-07-04T14:30:30;23.20;41.10
25953;DHT22;13750;50.804;8.764;2022-07-04T14:32:55;23.20;40.70
25953;DHT22;13750;50.804;8.764;2022-07-04T14:35:21;23.30;40.50
25953;DHT22;13750;50.804;8.764;2022-07-04T14:37:47;23.30;41.20
25953;DHT22;13750;50.804;8.764;2022-07-04T14:40:14;23.40;41.40
25953;DHT22;13750;50.804;8.764;2022-07-04T14:42:40;23.40;41.00
25953;DHT22;13750;50.804;8.764;2022-07-04T14:45:06;23.50;40.80
25953;DHT22;13750;50.804;8.764;2022-07-04T14:47:32;23.50;41.30
25953;DHT22;13750;50.804;8.764;2022-07-04T14:50:03;23.60;41.20
25953;DHT22;13750;50.804;8.764;2022-07-04T14:52:29;23.60;41.10
25953;DHT22;13750;50.804;8.764;2022-07-04T14:54:54;23.60;41.20
25953;DHT22;13750;50.804;8.764;2022-07-04T14:57:20;23.70;40.90
25953;DHT22;13750;50.804;8.764;2022-07-04T14:59:46;23.70;40.70
25953;DHT22;13750;50.804;8.764;2022-07-04T15:02:11;23.80;41.20
25953;DHT22;13750;50.804;8.764;2022-07-04T15:04:37;23.80;41.60
25953;DHT22;13750;50.804;8.764;2022-07-04T15:07:03;23.90;41.80
25953;DHT22;13750;50.804;8.764;2022-07-04T15:09:28;24.00;41.60
25953;DHT22;13750;50.804;8.764;2022-07-04T15:11:54;24.10;41.80
25953;DHT22;13750;50.804;8.764;2022-07-04T15:14:20;24.10;41.10
25953;DHT22;13750;50.804;8.764;2022-07-04T15:16:45;24.20;40.50
25953;DHT22;13750;50.804;8.764;2022-07-04T15:19:12;24.20;40.20
25953;DHT22;13750;50.804;8.764;2022-07-04T15:21:38;24.30;39.70
25953;DHT22;13750;50.804;8.764;2022-07-04T15:24:22;24.30;40.20
25953;DHT22;13750;50.804;8.764;2022-07-04T15:26:49;24.40;40.10
25953;DHT22;13750;50.804;8.764;2022-07-04T15:29:17;24.50;39.40
25953;DHT22;13750;50.804;8.764;2022-07-04T15:31:43;24.50;39.00
25953;DHT22;13750;50.804;8.764;2022-07-04T15:34:10;24.50;39.30
25953;DHT22;13750;50.804;8.764;2022-07-04T15:36:37;24.50;39.60
25953;DHT22;13750;50.804;8.764;2022-07-04T15:39:08;24.60;39.80
25953;DHT22;13750;50.804;8.764;2022-07-04T15:41:35;24.60;40.10
25953;DHT22;13750;50.804;8.764;2022-07-04T15:44:01;24.70;39.70
25953;DHT22;13750;50.804;8.764;2022-07-04T15:46:26;24.70;39.10
25953;DHT22;13750;50.804;8.764;2022-07-04T15:48:52;24.80;39.00
25953;DHT22;13750;50.804;8.764;2022-07-04T15:51:18;24.80;39.00
25953;DHT22;13750;50.804;8.764;2022-07-04T15:53:43;24.90;38.90
25953;DHT22;13750;50.804;8.764;2022-07-04T15:56:09;24.90;38.70
25953;DHT22;13750;50.804;8.764;2022-07-04T15:58:34;25.00;38.70